createdAt,value
2022-11-02T20:04:12.451Z,64.28
2022-11-02T20:06:40.426Z,64.21
2022-11-02T20:09:08.391Z,64.21
2022-11-02T20:11:35.801Z,63.82
2022-11-02T20:14:19.472Z,64.84
2022-11-02T20:16:58.797Z,63.64
2022-11-02T20:19:38.640Z,63.80
2022-11-02T20:22:05.695Z,63.85
2022-11-02T20:24:32.863Z,63.78
2022-11-02T20:27:00.138Z,64.08
2022-11-02T20:29:27.308Z,64.11
2022-11-02T20:31:54.584Z,64.54
2022-11-02T20:34:22.546Z,64.70
2022-11-02T20:36:51.694Z,64.02
2022-11-02T20:39:18.847Z,64.60
2022-11-02T20:41:46.039Z,65.09
2022-11-02T20:44:13.144Z,65.41
2022-11-02T20:46:42.246Z,64.68
2022-11-02T20:49:22.379Z,64.17
2022-11-02T20:51:58.267Z,64.18
2022-11-02T20:54:26.169Z,65.17
2022-11-02T20:56:53.746Z,65.26
2022-11-02T20:59:21.489Z,64.50
2022-11-02T21:01:48.984Z,65.03
2022-11-02T21:04:20.682Z,64.81
2022-11-02T21:06:48.736Z,64.29
2022-11-02T21:09:19.351Z,64.74
2022-11-02T21:11:46.770Z,64.47
2022-11-02T21:14:15.628Z,63.86
2022-11-02T21:16:43.307Z,64.89
2022-11-02T21:19:10.607Z,64.52
2022-11-02T21:21:38.189Z,63.97
2022-11-02T21:24:06.215Z,64.37
2022-11-02T21:26:35.172Z,65.23
2022-11-02T21:29:02.505Z,65.53
2022-11-02T21:31:29.814Z,65.28
2022-11-02T21:33:57.147Z,66.04
2022-11-02T21:36:24.466Z,65.81
2022-11-02T21:38:51.787Z,65.06
2022-11-02T21:41:20.306Z,65.59
2022-11-02T21:43:49.148Z,66.72
2022-11-02T21:46:16.809Z,66.25
2022-11-02T21:48:44.307Z,65.59
2022-11-02T21:51:12.613Z,65.85
2022-11-02T21:53:40.889Z,65.83
2022-11-02T21:56:09.561Z,64.84
